Tappahannock, Virginia
Current Conditions -  °F | °C
As of 8:55 PM on Monday 20 Oct 2014 (Local Time) from KXSA Reporting Station
Clear Clear  
Wind Chill: 12°   Ceiling: Unl
Heat Index: 12°   Visibility: 10mi
Dew Point:   Wind: 0mph
Humidity: 64%   Direction: NA
Pressure: 29.99"   Gusts: NA
Location:  37.93°N, 76.86°W
Report Text: KXSA 210055Z AUTO 00000KT 10SM CLR 12/05 A2999 RMK AO2 T01200054
Loading
Personal Weather Stations






























Interactive Weather Map
Tropical Storm Tracking
New forecast layout! Learn more

10-Day Weather Forecast

Advertisements
Track Severe Weather on mobile